PAOR

Details ICAO PAOR (ORT)
Name NORTHWAY
Region USA (Alaska)
Timezone America/Anchorage (UTC-8.0)
Plans Departing 3
Arriving 14
Stats Elevation 1,716 ft / 523 m (AMSL)
Location 62.961333° -141.929136°
Runways 1
Magnetic Variation 18.768° E
Sunrise 2018-05-24 12:01:10 UTC / 2018-05-24 04:01:10 Local
Sunset 2018-05-25 06:50:53 UTC / 2018-05-24 22:50:53 Local
Advertisement - Login to hide

Runways

ID Width Length Bearing (true) Bearing (mag) Surface Threshold Offset Overrun Length
04 100 ft / 30 m 3,293 ft / 1,004 m 73.97° 55.20° Gravel 0 ft / 0 m 1,353 ft / 412 m
22 100 ft / 30 m 3,293 ft / 1,004 m 253.99° 235.22° Gravel 0 ft / 0 m 1,000 ft / 305 m

Map

Weather


0- 5 10 15 20 25 30 35+ Temperature / ° C

Clouds and Precipitation
Forecast for 2018-05-25 06:00 UTC. Updated 30 minutes ago

Ground ~20,000 ft ~40,000 ft Winds

METAR

PAOR 250453Z AUTO VRB04KT 10SM FEW110 10/M03 A2968

TAF

TAF PAOR 242338Z 2500/2524 27008G20KT P6SM VCSH BKN070 FM250600 27006KT P6SM BKN070

Frequencies

Recorded 135.40 MHz ASOS
Unicom 123.60 MHz CTAF
Warning: Do not use this data for real-world aviation or navigation. No guarantee of current accuracy is given.